Latest Weather Observations for Laverton

IDV60801

Issued at 5:52 pm EST Thursday 18 July 2024 (issued every 10 minutes, with the page automatically refreshed every 10 minutes)

About weather observations | Map of weather stations | Latest weather observations for VIC | Other Formats
Station Details ID: 087031 Name: LAVERTON RAAF Lat: -37.86 Lon: 144.76 Height: 20.1 m
Data from the previous 72 hours. | See also: Recent months at Laverton
Date/Time
EST
Temp
°C
App
Temp
°C
Dew
Point
°C
Rel
Hum
%
Delta-T
°C
Wind Press
QNH
hPa
Press
MSL
hPa
Rain since
9am
mm
Dir  Spd
km/h
Gust
km/h
Spd
kts
Gust
kts
18/05:30pm 10.2 7.0 3.0 61 3.1 W 9 11 5 6 1015.9 1015.9 0.0
18/05:00pm 10.7 7.5 2.8 58 3.4 WSW 9 15 5 8 1015.6 1015.6 0.0
18/04:30pm 11.0 7.4 2.8 57 3.6 W 11 17 6 9 1015.5 1015.5 0.0
18/04:00pm 11.2 6.5 3.0 57 3.6 WSW 17 24 9 13 1015.3 1015.3 0.0
18/03:30pm 11.5 6.4 3.0 56 3.7 WSW 19 24 10 13 1015.3 1015.3 0.0
18/03:00pm 11.4 6.1 2.9 56 3.7 WSW 20 30 11 16 1015.6 1015.6 0.0
18/02:30pm 11.5 6.6 4.0 60 3.4 W 19 30 10 16 1015.8 1015.8 0.0
18/02:00pm 11.4 6.7 3.4 58 3.5 WSW 17 24 9 13 1015.8 1015.8 0.0
18/01:30pm 12.3 7.0 3.0 53 4.1 WSW 20 32 11 17 1015.8 1015.8 0.0
18/01:00pm 12.7 8.4 5.1 60 3.5 WSW 17 24 9 13 1016.1 1016.1 0.0
18/12:30pm 12.1 7.7 4.6 60 3.4 SW 17 24 9 13 1016.4 1016.4 0.0
18/12:00pm 11.9 7.0 4.9 62 3.2 SW 20 30 11 16 1016.4 1016.4 0.0
18/11:30am 11.5 6.7 4.9 64 3.0 WSW 19 26 10 14 1016.8 1016.8 0.0
18/11:00am 10.7 6.6 6.1 73 2.1 SW 17 28 9 15 1017.2 1017.2 0.0
18/10:30am 9.8 5.7 6.3 79 1.6 WSW 17 24 9 13 1017.5 1017.5 0.0
18/10:00am 9.7 5.6 6.4 80 1.5 WSW 17 28 9 15 1017.4 1017.4 0.0
18/09:30am 8.2 7.0 8.1 99 0.0 SW 4 9 2 5 1017.2 1017.2 0.0
18/09:00am 7.3 5.0 7.3 100 0.0 WSW 9 13 5 7 1017.4 1017.4 0.6
18/08:30am 6.3 3.7 6.3 100 0.0 W 9 13 5 7 1017.1 1017.1 0.6
18/08:00am 6.0 3.9 5.9 99 0.0 SW 6 11 3 6 1017.0 1017.0 0.6
18/07:30am 5.9 1.7 5.9 100 0.0 W 17 22 9 12 1016.9 1016.9 0.6
18/07:00am 5.7 2.3 5.7 100 0.0 W 13 19 7 10 1016.3 1016.3 0.6
18/06:30am 6.1 2.7 6.1 100 0.0 W 13 17 7 9 1016.0 1016.0 0.6
18/06:00am 6.1 2.7 6.1 100 0.0 W 13 17 7 9 1015.7 1015.7 0.6
18/05:30am 5.8 2.0 5.7 99 0.0 WNW 15 19 8 10 1015.6 1015.6 0.6
18/05:00am 6.3 3.0 6.2 99 0.0 W 13 17 7 9 1015.6 1015.6 0.6
18/04:30am 7.0 3.4 6.9 99 0.0 W 15 19 8 10 1015.5 1015.5 0.6
18/04:00am 7.3 3.8 7.2 99 0.0 W 15 20 8 11 1015.6 1015.6 0.6
18/03:30am 7.4 4.3 7.4 100 0.0 W 13 19 7 10 1015.7 1015.7 0.6
18/03:00am 7.6 5.0 7.6 100 0.0 W 11 13 6 7 1015.6 1015.6 0.6
18/02:37am 7.6 4.2 7.6 100 0.0 W 15 19 8 10 1015.5 1015.5 0.6
18/02:30am 7.6 3.8 7.6 100 0.0 W 17 24 9 13 1015.5 1015.5 0.6
18/02:16am 7.8 3.7 7.7 99 0.0 WSW 19 30 10 16 1015.7 1015.7 0.6
18/02:02am 7.7 4.3 7.6 99 0.0 W 15 19 8 10 1015.6 1015.6 0.6
18/02:00am 7.7 4.7 7.6 99 0.0 W 13 19 7 10 1015.6 1015.6 0.4
18/01:44am 8.1 4.8 8.0 99 0.0 W 15 20 8 11 1015.4 1015.4 0.4
18/01:30am 8.1 4.8 8.0 99 0.0 W 15 19 8 10 1015.3 1015.3 0.4
18/01:00am 8.1 5.2 8.1 100 0.0 W 13 19 7 10 1015.4 1015.4 0.4
18/12:36am 8.1 4.8 8.1 100 0.0 WSW 15 22 8 12 1015.5 1015.5 0.4
18/12:30am 8.1 4.4 8.1 100 0.0 WSW 17 24 9 13 1015.5 1015.5 0.4
18/12:17am 8.2 4.5 8.1 99 0.0 WSW 17 24 9 13 1015.7 1015.7 0.4
18/12:14am 8.2 4.5 8.1 99 0.0 WSW 17 24 9 13 1015.7 1015.7 0.4
18/12:00am 8.2 4.9 8.1 99 0.0 WSW 15 20 8 11 1015.7 1015.7 0.4
 
Date/Time
EST
Temp
°C
App
Temp
°C
Dew
Point
°C
Rel
Hum
%
Delta-T
°C
Wind Press
QNH
hPa
Press
MSL
hPa
Rain since
9am
mm
Dir  Spd
km/h
Gust
km/h
Spd
kts
Gust
kts
17/11:46pm 8.6 4.5 7.8 95 0.4 WSW 19 28 10 15 1015.8 1015.8 0.2
17/11:30pm 8.6 5.8 8.5 99 0.0 WSW 13 17 7 9 1015.6 1015.6 0.2
17/11:02pm 8.4 5.6 8.4 100 0.0 SW 13 19 7 10 1015.7 1015.7 0.2
17/11:00pm 8.5 5.7 8.5 100 0.0 SW 13 20 7 11 1015.7 1015.7 0.2
17/10:42pm 8.7 3.2 7.6 93 0.5 SW 26 41 14 22 1015.8 1015.8 0.2
17/10:30pm 10.0 5.5 6.3 78 1.7 SW 19 28 10 15 1015.5 1015.5 0.2
17/10:00pm 10.2 6.7 7.1 81 1.5 WSW 15 20 8 11 1015.2 1015.2 0.2
17/09:30pm 10.0 6.6 7.8 86 1.1 WSW 15 22 8 12 1014.9 1014.9 0.2
17/09:00pm 10.0 6.4 8.3 89 0.8 WSW 17 24 9 13 1014.8 1014.8 0.2
17/08:30pm 10.0 6.5 8.8 92 0.6 WSW 17 24 9 13 1014.8 1014.8 0.2
17/08:00pm 9.6 7.0 9.5 99 0.0 WSW 13 19 7 10 1014.6 1014.6 0.0
17/07:30pm 10.1 6.9 10.1 100 0.0 SW 17 26 9 14 1014.4 1014.4 0.0
17/07:00pm 10.2 7.5 10.2 100 0.0 SW 15 19 8 10 1014.2 1014.2 0.0
17/06:30pm 10.6 7.6 10.6 100 0.0 SW 17 24 9 13 1013.8 1013.8 0.0
17/06:01pm 10.3 7.6 10.3 100 0.0 SW 15 24 8 13 1013.5 1013.5 0.0
17/06:00pm 10.3 7.6 10.3 100 0.0 SW 15 24 8 13 1013.5 1013.5 0.0
17/05:42pm 10.3 5.8 10.1 99 0.1 SSW 24 33 13 18 1013.3 1013.3 0.0
17/05:30pm 11.0 7.4 10.5 97 0.3 SW 20 32 11 17 1013.2 1013.2 0.0
17/05:24pm 11.4 8.1 10.8 96 0.3 SSW 19 28 10 15 1013.1 1013.1 0.0
17/05:00pm 11.6 8.6 10.8 95 0.4 SW 17 24 9 13 1012.7 1012.7 0.0
17/04:30pm 11.9 7.4 10.1 89 0.9 SSW 24 39 13 21 1012.6 1012.6 0.0
17/04:00pm 12.6 8.4 9.8 83 1.4 SSW 22 33 12 18 1012.3 1012.3 0.0
17/03:30pm 12.9 9.0 9.5 80 1.7 SSW 20 32 11 17 1011.9 1011.9 0.0
17/03:00pm 12.8 8.8 10.5 86 1.2 SSW 22 33 12 18 1011.7 1011.7 0.0
17/02:48pm 12.8 9.4 10.7 87 1.1 SSW 19 30 10 16 1011.7 1011.7 0.0
17/02:31pm 12.8 9.7 11.5 92 0.7 S 19 28 10 15 1011.4 1011.5 0.0
17/02:30pm 12.8 9.7 11.5 92 0.7 S 19 28 10 15 1011.4 1011.5 0.0
17/02:00pm 13.1 9.2 12.2 94 0.5 SSW 24 35 13 19 1011.7 1011.7 0.0
17/01:30pm 13.7 10.3 11.2 85 1.3 SW 20 28 11 15 1011.7 1011.7 0.0
17/01:06pm 13.5 10.2 11.6 88 1.0 SW 20 30 11 16 1011.7 1011.7 0.0
17/01:00pm 13.3 10.2 11.7 90 0.9 SW 19 28 10 15 1011.8 1011.8 0.0
17/12:30pm 13.3 9.8 11.0 86 1.2 SW 20 32 11 17 1012.0 1012.0 0.0
17/12:18pm 14.0 11.4 11.9 87 1.1 SSW 17 20 9 11 1012.0 1012.0 0.0
17/12:07pm 14.4 12.5 13.1 92 0.7 SSW 15 22 8 12 1012.2 1012.2 0.0
17/12:00pm 13.2 11.1 12.4 95 0.4 SSW 15 22 8 12 1012.3 1012.3 0.0
17/11:30am 13.5 11.7 13.2 98 0.2 SW 15 22 8 12 1012.6 1012.6 0.0
17/11:00am 13.0 11.5 13.0 100 0.0 SSW 13 20 7 11 1013.0 1013.0 0.0
17/10:30am 12.4 11.1 12.4 100 0.0 SW 11 17 6 9 1013.0 1013.0 0.0
17/10:14am 12.6 11.3 12.6 100 0.0 SSW 11 15 6 8 1012.9 1012.9 0.0
17/10:00am 12.2 10.8 12.2 100 0.0 SW 11 17 6 9 1012.8 1012.8 0.0
17/09:30am 10.4 9.2 10.4 100 0.0 WSW 7 11 4 6 1012.6 1012.6 0.0
17/09:00am 8.9 7.0 8.9 100 0.0 W 9 11 5 6 1012.5 1012.5 0.0
17/08:41am 7.9 5.7 7.9 100 0.0 W 9 13 5 7 1012.3 1012.3 0.0
17/08:30am 7.5 5.2 7.5 100 0.0 WNW 9 11 5 6 1012.2 1012.2 0.0
17/08:12am 7.6 5.3 7.6 100 0.0 WNW 9 11 5 6 1011.9 1011.9 0.0
17/08:00am 6.9 4.5 6.9 100 0.0 WNW 9 11 5 6 1011.7 1011.7 0.0
17/07:30am 7.1 5.1 7.1 100 0.0 WNW 7 7 4 4 1011.5 1011.6 0.0
17/07:00am 7.0 4.6 7.0 100 0.0 WNW 9 9 5 5 1011.4 1011.5 0.0
17/06:30am 8.0 5.5 8.0 100 0.0 W 11 15 6 8 1011.3 1011.4 0.0
17/06:00am 8.3 5.8 8.3 100 0.0 W 11 15 6 8 1011.0 1011.1 0.0
17/05:50am 8.3 5.4 8.3 100 0.0 W 13 17 7 9 1010.9 1011.0 0.0
17/05:30am 8.6 6.2 8.6 100 0.0 W 11 17 6 9 1010.8 1010.9 0.0
17/05:00am 8.9 6.2 8.9 100 0.0 W 13 17 7 9 1010.7 1010.8 0.0
17/04:30am 8.7 5.9 8.7 100 0.0 W 13 17 7 9 1010.5 1010.6 0.0
17/04:00am 8.5 5.7 8.5 100 0.0 W 13 15 7 8 1010.8 1010.9 0.0
17/03:43am 8.0 5.5 8.0 100 0.0 WSW 11 17 6 9 1010.9 1011.0 0.0
17/03:30am 7.7 4.7 7.7 100 0.0 WSW 13 19 7 10 1010.8 1010.9 0.0
17/03:00am 7.2 4.5 7.2 100 0.0 WSW 11 15 6 8 1010.8 1010.9 0.0
17/02:30am 7.0 4.6 7.0 100 0.0 W 9 11 5 6 1010.8 1010.9 0.0
17/02:00am 6.9 4.5 6.9 100 0.0 W 9 9 5 5 1010.8 1010.9 0.0
17/01:30am 7.5 5.2 7.5 100 0.0 W 9 11 5 6 1010.6 1010.7 0.0
17/01:00am 8.1 6.0 8.1 100 0.0 W 9 11 5 6 1010.6 1010.7 0.0
17/12:30am 8.8 6.4 8.8 100 0.0 WSW 11 13 6 7 1010.6 1010.7 0.0
17/12:00am 8.9 6.6 8.9 100 0.0 WSW 11 13 6 7 1010.8 1010.9 0.0
 
Date/Time
EST
Temp
°C
App
Temp
°C
Dew
Point
°C
Rel
Hum
%
Delta-T
°C
Wind Press
QNH
hPa
Press
MSL
hPa
Rain since
9am
mm
Dir  Spd
km/h
Gust
km/h
Spd
kts
Gust
kts
16/11:30pm 8.4 6.3 8.4 100 0.0 WSW 9 11 5 6 1010.9 1011.0 0.0
16/11:00pm 9.3 7.1 9.3 100 0.0 SW 11 15 6 8 1010.9 1011.0 0.0
16/10:30pm 9.7 8.0 9.7 100 0.0 SW 9 13 5 7 1010.8 1010.9 0.0
16/10:00pm 10.2 8.6 10.2 100 0.0 SW 9 15 5 8 1010.7 1010.8 0.0
16/09:30pm 10.8 9.0 10.8 100 0.0 SW 11 15 6 8 1010.6 1010.7 0.0
16/09:00pm 11.7 10.5 11.7 100 0.0 SW 9 15 5 8 1010.4 1010.5 0.0
16/08:30pm 12.0 10.9 12.0 100 0.0 SSW 9 13 5 7 1010.1 1010.2 0.0
16/08:00pm 12.0 10.9 12.0 100 0.0 SSW 9 13 5 7 1009.9 1010.0 0.0
16/07:30pm 12.2 10.0 12.2 100 0.0 SSW 15 19 8 10 1009.7 1009.8 0.0
16/07:00pm 12.4 10.7 12.4 100 0.0 SW 13 19 7 10 1009.3 1009.4 0.0
16/06:30pm 12.5 10.8 12.3 99 0.1 SW 13 19 7 10 1009.0 1009.1 0.0
16/06:00pm 12.6 10.5 12.4 99 0.1 SSW 15 20 8 11 1008.8 1008.9 0.0
16/05:30pm 12.7 10.3 12.5 99 0.1 SW 17 24 9 13 1008.4 1008.5 0.0
16/05:00pm 13.2 10.9 11.6 90 0.9 SSW 15 20 8 11 1008.2 1008.3 0.0
16/04:30pm 13.6 11.7 11.7 88 1.0 SSW 13 17 7 9 1007.9 1008.0 0.0
16/04:00pm 13.6 10.6 12.0 90 0.9 SSW 19 26 10 14 1007.7 1007.8 0.0
16/03:30pm 13.5 9.9 11.9 90 0.9 SSW 22 30 12 16 1007.4 1007.5 0.0
16/03:00pm 13.8 10.3 12.2 90 0.9 SSW 22 30 12 16 1007.3 1007.4 0.0
16/02:30pm 14.0 10.8 11.9 87 1.1 SSW 20 30 11 16 1007.1 1007.2 0.0
16/02:00pm 14.2 10.7 12.1 87 1.1 SSW 22 33 12 18 1007.0 1007.1 0.0
16/01:30pm 14.3 10.7 12.0 86 1.2 SSW 22 28 12 15 1006.8 1006.9 0.0
16/01:00pm 14.0 10.8 11.3 84 1.4 SSW 19 26 10 14 1006.9 1007.0 0.0
16/12:56pm 14.0 10.9 11.7 86 1.2 SSW 19 26 10 14 1006.9 1007.0 0.0
16/12:30pm 14.0 11.0 12.6 91 0.8 SSW 20 28 11 15 1007.1 1007.2 0.0
16/12:08pm 13.9 11.2 12.8 93 0.6 SSW 19 26 10 14 1007.3 1007.4 0.0
16/12:00pm 14.0 11.3 12.9 93 0.6 SSW 19 26 10 14 1007.3 1007.4 0.0
16/11:30am 13.9 11.2 13.4 97 0.3 SSW 20 28 11 15 1007.4 1007.5 0.0
16/11:01am 13.5 10.6 13.0 97 0.3 SSW 20 32 11 17 1007.3 1007.4 0.0
16/11:00am 13.5 10.6 13.0 97 0.3 SSW 20 28 11 15 1007.3 1007.4 0.0
16/10:30am 13.5 10.9 13.3 99 0.1 SSW 19 26 10 14 1007.3 1007.4 0.0
16/10:11am 13.3 10.5 13.3 100 0.0 SSW 20 28 11 15 1007.0 1007.1 0.0
16/10:01am 13.2 10.6 13.2 100 0.0 SSW 19 28 10 15 1006.9 1007.0 0.0
16/10:00am 13.1 10.5 13.1 100 0.0 SSW 19 28 10 15 1006.9 1007.0 0.0
16/09:30am 12.7 9.9 12.7 100 0.0 SSW 19 24 10 13 1006.6 1006.7 0.0
16/09:00am 12.3 10.6 12.3 100 0.0 SW 13 19 7 10 1006.2 1006.3 13.4
16/08:46am 12.1 10.3 12.1 100 0.0 SSW 13 20 7 11 1005.9 1006.0 13.4
16/08:30am 11.9 9.6 11.9 100 0.0 SW 15 24 8 13 1005.6 1005.7 13.4
16/08:00am 11.8 8.8 11.8 100 0.0 SSW 19 26 10 14 1005.1 1005.2 13.4
16/07:30am 11.7 8.4 11.7 100 0.0 SSW 20 26 11 14 1005.0 1005.1 13.4
16/07:00am 11.6 8.5 11.6 100 0.0 SSW 19 26 10 14 1004.6 1004.7 13.4
16/06:30am 11.5 8.7 11.5 100 0.0 SW 17 24 9 13 1004.3 1004.4 13.4
16/06:00am 11.6 9.3 11.6 100 0.0 SSW 15 22 8 12 1004.0 1004.1 13.4
16/05:30am 11.6 8.5 11.6 100 0.0 SSW 19 28 10 15 1003.5 1003.6 13.4
16/05:00am 11.9 8.9 11.9 100 0.0 SSW 19 26 10 14 1003.2 1003.3 13.4
16/04:30am 12.0 8.8 12.0 100 0.0 SSW 20 26 11 14 1002.9 1003.0 13.4
16/04:00am 12.1 9.0 12.1 100 0.0 SSW 20 28 11 15 1002.5 1002.6 13.4
16/03:45am 12.1 8.6 12.1 100 0.0 SSW 22 28 12 15 1002.4 1002.5 13.4
16/03:35am 12.1 9.0 12.1 100 0.0 SSW 20 28 11 15 1002.4 1002.5 13.4
16/03:33am 12.1 9.0 12.1 100 0.0 SSW 20 28 11 15 1002.3 1002.4 13.4
16/03:30am 12.1 9.0 12.1 100 0.0 S 20 28 11 15 1002.3 1002.4 13.4
16/03:23am 12.0 8.8 12.0 100 0.0 S 20 28 11 15 1002.3 1002.4 13.4
16/03:00am 12.0 8.8 12.0 100 0.0 SSW 20 32 11 17 1002.1 1002.2 13.4
16/02:48am 11.8 8.6 11.8 100 0.0 SSW 20 26 11 14 1002.0 1002.1 13.4
16/02:30am 11.7 8.4 11.7 100 0.0 SW 20 30 11 16 1001.8 1001.9 13.4
16/02:00am 11.0 7.7 11.0 100 0.0 SW 19 28 10 15 1001.5 1001.6 13.4
16/01:30am 10.2 6.1 10.2 100 0.0 SW 22 30 12 16 1001.1 1001.2 13.4
16/01:21am 10.3 6.3 10.3 100 0.0 SW 22 35 12 19 1001.2 1001.3 13.2
16/01:00am 9.9 4.6 9.9 100 0.0 WSW 28 41 15 22 1001.0 1001.1 13.0
16/12:33am 9.8 4.1 9.8 100 0.0 WSW 30 48 16 26 1000.9 1001.0 10.0
16/12:30am 9.8 3.7 9.8 100 0.0 WSW 32 48 17 26 1000.9 1001.0 9.8
16/12:05am 9.8 3.5 9.8 100 0.0 WSW 33 52 18 28 1000.8 1000.9 7.4
16/12:00am 9.8 3.5 9.8 100 0.0 WSW 33 48 18 26 1000.9 1001.0 7.2
 
Date/Time
EST
Temp
°C
App
Temp
°C
Dew
Point
°C
Rel
Hum
%
Delta-T
°C
Wind Press
QNH
hPa
Press
MSL
hPa
Rain since
9am
mm
Dir  Spd
km/h
Gust
km/h
Spd
kts
Gust
kts
15/11:48pm 9.8 4.1 9.8 100 0.0 WSW 30 50 16 27 1000.9 1001.0 6.6
15/11:30pm 9.8 3.1 9.8 100 0.0 WSW 35 52 19 28 1001.0 1001.1 5.8
15/11:27pm 9.8 3.7 9.8 100 0.0 WSW 32 52 17 28 1001.0 1001.1 5.8
15/11:18pm 9.6 3.8 9.6 100 0.0 W 30 44 16 24 1001.1 1001.2 5.4
15/11:15pm 9.6 3.5 9.6 100 0.0 W 32 44 17 24 1001.2 1001.3 5.4
15/11:05pm 9.6 3.8 9.6 100 0.0 WSW 30 43 16 23 1001.2 1001.3 5.0
15/11:00pm 9.6 3.8 9.6 100 0.0 WSW 30 46 16 25 1001.2 1001.3 4.8
15/10:41pm 9.6 3.8 9.6 100 0.0 WSW 30 44 16 24 1001.6 1001.7 4.0
15/10:30pm 9.6 3.5 9.6 100 0.0 WSW 32 43 17 23 1001.7 1001.8 3.8
15/10:00pm 9.5 3.7 9.5 100 0.0 W 30 44 16 24 1002.1 1002.2 3.4
15/09:51pm 9.4 4.0 9.4 100 0.0 W 28 48 15 26 1002.2 1002.3 3.2
15/09:36pm 9.6 4.2 9.6 100 0.0 WSW 28 48 15 26 1002.3 1002.4 2.2
15/09:30pm 9.6 3.8 9.6 100 0.0 WSW 30 41 16 22 1002.4 1002.5 2.0
15/09:00pm 9.4 4.0 9.4 100 0.0 WSW 28 39 15 21 1002.6 1002.7 1.8
15/08:43pm 9.5 3.7 9.5 100 0.0 WSW 30 41 16 22 1002.6 1002.7 1.8
15/08:30pm 9.5 3.3 9.5 100 0.0 WSW 32 41 17 22 1002.8 1002.9 1.8
15/08:20pm 9.6 3.4 9.5 99 0.0 WSW 32 43 17 23 1002.9 1003.0 1.6
15/08:00pm 9.5 4.1 9.4 99 0.0 WSW 28 44 15 24 1003.0 1003.1 1.6
15/07:31pm 9.8 4.3 9.2 96 0.3 WSW 28 46 15 25 1003.0 1003.1 1.4
15/07:30pm 9.8 3.9 9.2 96 0.3 W 30 46 16 25 1003.0 1003.1 1.4
15/07:27pm 9.8 4.3 9.2 96 0.3 W 28 46 15 25 1002.9 1003.0 1.4
15/07:00pm 9.7 3.4 8.9 95 0.4 W 32 46 17 25 1003.1 1003.2 1.4
15/06:30pm 9.7 3.4 8.9 95 0.4 W 32 48 17 26 1003.3 1003.4 1.4
15/06:00pm 9.8 3.4 8.7 93 0.5 W 32 50 17 27 1003.5 1003.6 1.4
15/05:55pm 9.8 3.8 8.7 93 0.5 W 30 50 16 27 1003.4 1003.5 1.4

Other formats

Comma delimited format used in spreadsheet applications
http://www.bom.gov.au/fwo/IDV60801/IDV60801.94865.axf

JavaScript Object Notation format (JSON) in row-major order
http://www.bom.gov.au/fwo/IDV60801/IDV60801.94865.json

Data quality

Most of these data are generated automatically and are frequently updated. Quality checks on data are not normally performed. It is possible for incorrect values to appear. Refer to information at About Latest Weather Observations and please check the disclaimer before using these data.